createdAt,value
2019-05-02T00:01:37.790Z,9.30
2019-05-02T00:04:04.576Z,9.10
2019-05-02T00:06:31.653Z,9.10
2019-05-02T00:08:58.355Z,9.00
2019-05-02T00:11:27.244Z,9.00
2019-05-02T00:13:54.580Z,9.00
2019-05-02T00:16:21.276Z,8.90
2019-05-02T00:18:48.916Z,8.90
2019-05-02T00:21:16.192Z,8.90
2019-05-02T00:23:42.840Z,9.00
2019-05-02T00:26:09.756Z,9.00
2019-05-02T00:28:38.679Z,9.00
2019-05-02T00:31:07.464Z,8.90
2019-05-02T00:33:38.101Z,8.90
2019-05-02T00:36:04.889Z,9.00
2019-05-02T00:38:33.434Z,8.90
2019-05-02T00:41:03.707Z,8.80
2019-05-02T00:43:34.620Z,8.70
2019-05-02T00:45:59.791Z,8.70
2019-05-02T00:48:54.254Z,8.80
2019-05-02T00:51:22.010Z,8.70
2019-05-02T00:53:50.292Z,8.80
2019-05-02T00:56:16.951Z,8.80
2019-05-02T00:58:43.673Z,8.80
2019-05-02T01:01:29.696Z,8.90
2019-05-02T01:04:00.260Z,8.90
2019-05-02T01:06:27.058Z,9.00
2019-05-02T01:08:53.675Z,8.90
2019-05-02T01:11:20.287Z,8.80
2019-05-02T01:13:50.340Z,8.70
2019-05-02T01:16:19.174Z,8.70
2019-05-02T01:18:44.135Z,8.70
2019-05-02T01:21:10.738Z,8.70
2019-05-02T01:23:37.772Z,8.70
2019-05-02T01:26:04.732Z,8.60
2019-05-02T01:28:53.815Z,8.70
2019-05-02T01:31:24.437Z,8.70
2019-05-02T01:34:01.235Z,8.70
2019-05-02T01:36:32.639Z,8.60
2019-05-02T01:39:02.874Z,8.70
2019-05-02T01:41:29.182Z,8.60
2019-05-02T01:44:00.160Z,8.60
2019-05-02T01:46:24.788Z,8.70
2019-05-02T01:48:51.402Z,8.60
2019-05-02T01:51:18.239Z,8.60
2019-05-02T01:53:44.841Z,8.70
2019-05-02T01:56:11.685Z,8.70
2019-05-02T01:58:38.331Z,8.70
2019-05-02T02:01:05.183Z,8.70
2019-05-02T02:03:31.932Z,8.70
2019-05-02T02:06:02.833Z,8.70
2019-05-02T02:08:32.326Z,8.70
2019-05-02T02:10:58.206Z,8.70
2019-05-02T02:13:24.745Z,8.60
2019-05-02T02:15:51.417Z,8.50
2019-05-02T02:18:22.373Z,8.50
2019-05-02T02:21:10.160Z,8.50
2019-05-02T02:23:54.801Z,8.40
2019-05-02T02:26:21.535Z,8.30
2019-05-02T02:28:48.163Z,8.30
2019-05-02T02:31:18.213Z,8.30
2019-05-02T02:33:47.943Z,8.40
2019-05-02T02:36:13.399Z,8.40
2019-05-02T02:38:40.049Z,8.50
2019-05-02T02:41:13.148Z,8.50
2019-05-02T02:43:35.568Z,8.50
2019-05-02T02:46:15.572Z,8.50
2019-05-02T02:48:42.788Z,8.40
2019-05-02T02:51:09.602Z,8.30
2019-05-02T02:53:36.329Z,8.30
2019-05-02T02:56:05.130Z,8.30
2019-05-02T02:58:44.162Z,8.30
2019-05-02T03:01:00.545Z,8.30
2019-05-02T03:03:28.575Z,8.30
2019-05-02T03:05:58.704Z,8.30
2019-05-02T03:08:25.354Z,8.30
2019-05-02T03:10:52.771Z,8.40
2019-05-02T03:13:51.440Z,8.30
2019-05-02T03:16:09.519Z,8.30
2019-05-02T03:18:40.740Z,8.20
2019-05-02T03:21:04.751Z,8.20
2019-05-02T03:23:31.702Z,8.20
2019-05-02T03:25:58.526Z,8.20
2019-05-02T03:28:25.142Z,8.20
2019-05-02T03:30:52.087Z,8.20
2019-05-02T03:33:18.772Z,8.20
2019-05-02T03:35:49.048Z,8.30
2019-05-02T03:38:15.027Z,8.20
2019-05-02T03:40:41.638Z,8.30
2019-05-02T03:43:08.369Z,8.30
2019-05-02T03:45:40.187Z,8.20
2019-05-02T03:48:04.386Z,8.30
2019-05-02T03:50:32.580Z,8.20
2019-05-02T03:53:00.000Z,8.30
2019-05-02T03:55:31.442Z,8.40
2019-05-02T03:57:55.998Z,8.30
2019-05-02T04:00:24.424Z,8.30
2019-05-02T04:02:59.193Z,8.30
2019-05-02T04:05:20.081Z,8.30
2019-05-02T04:07:47.021Z,8.30
2019-05-02T04:10:21.463Z,8.30
2019-05-02T04:12:53.217Z,8.40
2019-05-02T04:15:17.645Z,8.40
2019-05-02T04:17:44.260Z,8.40
2019-05-02T04:20:12.753Z,8.40
2019-05-02T04:22:42.699Z,8.40
2019-05-02T04:25:08.836Z,8.50
2019-05-02T04:27:35.953Z,8.50
2019-05-02T04:30:11.610Z,8.50
2019-05-02T04:32:32.129Z,8.50
2019-05-02T04:34:58.770Z,8.50
2019-05-02T04:37:25.450Z,8.50
2019-05-02T04:39:53.769Z,8.50
2019-05-02T04:42:23.246Z,8.50
2019-05-02T04:45:11.649Z,8.60
2019-05-02T04:47:21.919Z,8.60
2019-05-02T04:49:49.134Z,8.60
2019-05-02T04:52:20.903Z,8.60
2019-05-02T04:54:48.562Z,8.50
2019-05-02T04:57:14.676Z,8.60
2019-05-02T04:59:41.390Z,8.60
2019-05-02T05:02:09.113Z,8.60
2019-05-02T05:04:42.374Z,8.70
2019-05-02T05:07:05.024Z,8.70
2019-05-02T05:09:31.657Z,8.60
2019-05-02T05:12:01.317Z,8.70
2019-05-02T05:14:31.499Z,8.70
2019-05-02T05:16:56.080Z,8.80
2019-05-02T05:19:28.744Z,8.80
2019-05-02T05:21:56.719Z,8.80
2019-05-02T05:24:44.469Z,8.90
2019-05-02T05:27:13.280Z,8.80
2019-05-02T05:29:39.696Z,8.90
2019-05-02T05:32:09.910Z,8.80
2019-05-02T05:34:34.840Z,8.80
2019-05-02T05:37:03.637Z,8.90
2019-05-02T05:39:30.243Z,8.80
2019-05-02T05:41:57.840Z,8.80
2019-05-02T05:44:30.619Z,8.70
2019-05-02T05:46:53.291Z,8.70
2019-05-02T05:49:21.773Z,8.90
2019-05-02T05:51:49.514Z,8.90
2019-05-02T05:54:17.823Z,8.90
2019-05-02T05:56:48.164Z,9.00
2019-05-02T05:59:17.374Z,9.00
2019-05-02T06:01:44.396Z,9.10
2019-05-02T06:04:13.859Z,9.20
2019-05-02T06:06:39.565Z,9.20
2019-05-02T06:09:07.421Z,9.30
2019-05-02T06:11:34.742Z,9.20
2019-05-02T06:14:01.435Z,9.30
2019-05-02T06:16:28.106Z,9.30
2019-05-02T06:18:54.810Z,9.40
2019-05-02T06:21:21.607Z,9.40
2019-05-02T06:23:49.882Z,9.40
2019-05-02T06:26:16.724Z,9.50
2019-05-02T06:28:43.373Z,9.50
2019-05-02T06:31:09.971Z,9.60
2019-05-02T06:33:36.605Z,9.70
2019-05-02T06:36:03.559Z,9.70
2019-05-02T06:38:30.180Z,9.70
2019-05-02T06:40:57.196Z,9.70
2019-05-02T06:43:23.829Z,9.80
2019-05-02T06:45:50.463Z,9.90
2019-05-02T06:48:17.646Z,10.00
2019-05-02T06:50:45.616Z,10.20
2019-05-02T06:53:12.605Z,10.30
2019-05-02T06:55:39.468Z,10.40
2019-05-02T06:58:08.190Z,10.40
2019-05-02T07:00:38.460Z,10.40
2019-05-02T07:03:05.017Z,10.50
2019-05-02T07:05:32.337Z,10.50
2019-05-02T07:07:59.365Z,10.60
2019-05-02T07:10:26.706Z,10.60
2019-05-02T07:13:09.450Z,10.60
2019-05-02T07:15:38.507Z,10.60
2019-05-02T07:18:12.141Z,10.60
2019-05-02T07:20:40.666Z,10.60
2019-05-02T07:23:10.548Z,10.70
2019-05-02T07:25:39.149Z,10.60
2019-05-02T07:28:09.528Z,10.60
2019-05-02T07:30:35.130Z,10.60
2019-05-02T07:33:02.968Z,10.40
2019-05-02T07:35:29.659Z,10.60
2019-05-02T07:37:56.283Z,10.70
2019-05-02T07:40:23.024Z,10.60
2019-05-02T07:42:49.693Z,10.60
2019-05-02T07:45:16.683Z,10.60
2019-05-02T07:47:43.469Z,10.60
2019-05-02T07:50:11.963Z,10.60
2019-05-02T07:52:41.046Z,10.80
2019-05-02T07:55:10.053Z,10.80
2019-05-02T07:57:36.512Z,10.70
2019-05-02T08:00:04.536Z,10.60
2019-05-02T08:02:31.245Z,10.50
2019-05-02T08:04:57.827Z,10.50
2019-05-02T08:07:27.186Z,10.60
2019-05-02T08:09:53.047Z,10.60
2019-05-02T08:12:19.787Z,10.60
2019-05-02T08:14:46.650Z,10.60
2019-05-02T08:17:17.073Z,10.70
2019-05-02T08:19:43.185Z,10.70
2019-05-02T08:22:13.501Z,10.80
2019-05-02T08:24:39.345Z,10.90
2019-05-02T08:27:15.548Z,11.00
2019-05-02T08:29:42.160Z,11.10
2019-05-02T08:32:08.845Z,11.10
2019-05-02T08:34:35.495Z,11.10
2019-05-02T08:37:03.129Z,11.30
2019-05-02T08:39:33.788Z,11.50
2019-05-02T08:41:59.740Z,11.40
2019-05-02T08:44:26.469Z,11.50
2019-05-02T08:46:53.294Z,11.50
2019-05-02T08:49:20.540Z,11.60
2019-05-02T08:51:47.139Z,11.50
2019-05-02T08:54:13.745Z,11.70
2019-05-02T08:56:40.583Z,11.70
2019-05-02T08:59:07.209Z,11.80
2019-05-02T09:01:35.199Z,11.80
2019-05-02T09:04:02.808Z,11.90
2019-05-02T09:06:29.563Z,11.80
2019-05-02T09:08:56.231Z,11.90
2019-05-02T09:11:22.984Z,11.90
2019-05-02T09:13:49.597Z,12.30
2019-05-02T09:16:16.184Z,12.40
2019-05-02T09:18:50.728Z,12.50
2019-05-02T09:21:12.548Z,12.60
2019-05-02T09:23:41.303Z,12.40
2019-05-02T09:26:08.373Z,12.50
2019-05-02T09:28:35.041Z,12.60
2019-05-02T09:31:05.519Z,12.50
2019-05-02T09:33:32.190Z,12.40
2019-05-02T09:35:58.997Z,12.80
2019-05-02T09:38:25.620Z,13.00
2019-05-02T09:40:56.089Z,13.20
2019-05-02T09:43:22.733Z,13.40
2019-05-02T09:45:49.403Z,13.40
2019-05-02T09:48:17.239Z,13.20
2019-05-02T09:50:44.560Z,13.50
2019-05-02T09:53:13.210Z,13.90
2019-05-02T09:55:42.338Z,13.50
2019-05-02T09:58:10.493Z,13.30
2019-05-02T10:00:45.729Z,13.00
2019-05-02T10:03:13.440Z,13.00
2019-05-02T10:05:40.252Z,13.00
2019-05-02T10:08:10.693Z,13.20
2019-05-02T10:10:37.137Z,13.10
2019-05-02T10:13:05.728Z,13.20
2019-05-02T10:15:32.932Z,13.20
2019-05-02T10:18:08.781Z,13.40
2019-05-02T10:20:31.852Z,13.30
2019-05-02T10:22:56.720Z,13.50
2019-05-02T10:25:23.366Z,13.50
2019-05-02T10:27:51.990Z,13.30
2019-05-02T10:30:21.715Z,13.20
2019-05-02T10:32:52.905Z,13.00
2019-05-02T10:35:18.943Z,12.50
2019-05-02T10:37:45.601Z,12.30
2019-05-02T10:40:16.039Z,12.20
2019-05-02T10:42:41.915Z,12.30
2019-05-02T10:45:13.117Z,12.40
2019-05-02T10:47:39.299Z,12.40
2019-05-02T10:50:13.619Z,12.50
2019-05-02T10:52:42.412Z,12.60
2019-05-02T10:55:10.076Z,12.50
2019-05-02T10:57:36.758Z,12.50
2019-05-02T11:00:04.703Z,12.70
2019-05-02T11:03:03.392Z,12.80
2019-05-02T11:05:31.585Z,12.90
2019-05-02T11:08:04.710Z,12.70
2019-05-02T11:10:26.909Z,12.80
2019-05-02T11:13:01.894Z,12.80
2019-05-02T11:15:46.298Z,12.70
2019-05-02T11:18:13.643Z,12.70
2019-05-02T11:20:42.054Z,12.70
2019-05-02T11:23:08.828Z,12.70
2019-05-02T11:25:35.475Z,12.80
2019-05-02T11:28:06.991Z,12.90
2019-05-02T11:30:31.999Z,12.90
2019-05-02T11:32:58.827Z,13.00
2019-05-02T11:35:25.466Z,12.90
2019-05-02T11:37:52.068Z,12.90
2019-05-02T11:40:18.746Z,12.90
2019-05-02T11:42:47.148Z,12.90
2019-05-02T11:45:13.933Z,12.80
2019-05-02T11:47:42.175Z,12.90
2019-05-02T11:50:11.413Z,12.90
2019-05-02T11:52:38.325Z,13.00
2019-05-02T11:55:05.229Z,13.10
2019-05-02T11:57:33.203Z,13.30
2019-05-02T12:00:05.084Z,13.70
2019-05-02T12:02:58.382Z,13.90
2019-05-02T12:05:31.733Z,13.90
2019-05-02T12:08:00.821Z,14.00
2019-05-02T12:10:27.926Z,13.70
2019-05-02T12:12:55.205Z,13.70
2019-05-02T12:15:21.820Z,13.80
2019-05-02T12:17:48.451Z,14.10
2019-05-02T12:20:15.336Z,14.10
2019-05-02T12:22:42.863Z,13.90
2019-05-02T12:25:09.710Z,13.80
2019-05-02T12:27:36.331Z,13.90
2019-05-02T12:30:03.536Z,13.90
2019-05-02T12:32:30.235Z,13.70
2019-05-02T12:34:56.881Z,13.70
2019-05-02T12:37:23.545Z,13.70
2019-05-02T12:39:51.719Z,13.70
2019-05-02T12:42:18.853Z,13.90
2019-05-02T12:44:45.675Z,13.80
2019-05-02T12:47:12.451Z,13.70
2019-05-02T12:49:39.210Z,13.90
2019-05-02T12:52:05.996Z,13.90
2019-05-02T12:54:32.680Z,13.90
2019-05-02T12:56:59.569Z,13.90
2019-05-02T12:59:26.689Z,13.90
2019-05-02T13:01:53.641Z,13.90
2019-05-02T13:04:20.382Z,13.70
2019-05-02T13:06:47.016Z,13.80
2019-05-02T13:09:13.697Z,13.90
2019-05-02T13:11:52.155Z,14.10
2019-05-02T13:14:22.807Z,14.20
2019-05-02T13:16:53.615Z,14.10
2019-05-02T13:19:18.885Z,13.80
2019-05-02T13:21:58.234Z,13.60
2019-05-02T13:24:37.387Z,13.70
2019-05-02T13:27:06.684Z,13.90
2019-05-02T13:29:33.600Z,14.00
2019-05-02T13:32:17.530Z,14.10
2019-05-02T13:34:55.505Z,14.00
2019-05-02T13:37:19.173Z,13.90
2019-05-02T13:40:02.688Z,13.80
2019-05-02T13:42:29.625Z,13.70
2019-05-02T13:45:16.176Z,13.70
2019-05-02T13:47:42.807Z,13.70
2019-05-02T13:50:09.814Z,13.70
2019-05-02T13:52:36.528Z,13.80
2019-05-02T13:55:05.276Z,14.20
2019-05-02T13:57:35.051Z,14.60
2019-05-02T14:00:02.311Z,15.30
2019-05-02T14:02:35.241Z,15.20
2019-05-02T14:05:02.457Z,15.00
2019-05-02T14:07:29.435Z,15.00
2019-05-02T14:10:00.353Z,15.00
2019-05-02T14:12:48.708Z,15.20
2019-05-02T14:15:17.309Z,15.10
2019-05-02T14:17:44.340Z,15.10
2019-05-02T14:20:13.721Z,15.10
2019-05-02T14:22:40.190Z,15.00
2019-05-02T14:25:07.416Z,15.00
2019-05-02T14:27:34.105Z,14.90
2019-05-02T14:30:02.435Z,14.90
2019-05-02T14:32:29.236Z,14.50
2019-05-02T14:35:09.394Z,14.40
2019-05-02T14:37:36.577Z,14.40
2019-05-02T14:40:11.660Z,14.50
2019-05-02T14:42:38.517Z,14.40
2019-05-02T14:45:19.933Z,14.30
2019-05-02T14:47:34.547Z,14.40
2019-05-02T14:50:04.995Z,14.90
2019-05-02T14:52:30.005Z,15.10
2019-05-02T14:54:57.039Z,15.40
2019-05-02T14:57:27.157Z,15.20
2019-05-02T14:59:59.119Z,15.30
2019-05-02T15:02:47.243Z,15.40
2019-05-02T15:05:09.018Z,15.30
2019-05-02T15:07:38.499Z,15.20
2019-05-02T15:10:06.724Z,15.10
2019-05-02T15:12:33.621Z,14.80
2019-05-02T15:15:02.350Z,14.60
2019-05-02T15:17:33.671Z,14.40
2019-05-02T15:19:58.414Z,14.20
2019-05-02T15:22:27.615Z,14.20
2019-05-02T15:24:56.401Z,14.10
2019-05-02T15:27:22.376Z,14.20
2019-05-02T15:29:53.953Z,14.20
2019-05-02T15:32:25.643Z,14.20
2019-05-02T15:35:12.935Z,14.30
2019-05-02T15:37:41.721Z,14.90
2019-05-02T15:40:43.070Z,15.30
2019-05-02T15:42:47.987Z,15.30
2019-05-02T15:45:14.836Z,15.00
2019-05-02T15:47:45.153Z,14.80
2019-05-02T15:50:14.707Z,14.50
2019-05-02T15:52:42.023Z,14.40
2019-05-02T15:55:09.104Z,14.30
2019-05-02T15:57:42.925Z,14.20
2019-05-02T16:00:05.700Z,14.20
2019-05-02T16:02:32.435Z,14.00
2019-05-02T16:05:02.353Z,14.10
2019-05-02T16:07:27.640Z,14.10
2019-05-02T16:09:57.246Z,14.00
2019-05-02T16:12:27.182Z,14.00
2019-05-02T16:14:52.792Z,14.00
2019-05-02T16:17:25.633Z,14.00
2019-05-02T16:19:58.737Z,14.00
2019-05-02T16:22:24.380Z,14.00
2019-05-02T16:24:53.359Z,13.90
2019-05-02T16:27:29.825Z,13.80
2019-05-02T16:29:58.342Z,13.80
2019-05-02T16:32:35.747Z,13.70
2019-05-02T16:35:07.159Z,13.60
2019-05-02T16:37:32.400Z,13.60
2019-05-02T16:39:59.129Z,13.60
2019-05-02T16:42:26.070Z,13.60
2019-05-02T16:44:54.760Z,13.60
2019-05-02T16:47:21.961Z,13.50
2019-05-02T16:49:53.146Z,13.60
2019-05-02T16:52:17.783Z,13.60
2019-05-02T16:54:45.009Z,13.70
2019-05-02T16:57:12.562Z,13.60
2019-05-02T16:59:39.270Z,13.70
2019-05-02T17:02:07.976Z,13.70
2019-05-02T17:04:35.070Z,13.70
2019-05-02T17:07:05.889Z,13.60
2019-05-02T17:09:42.400Z,13.60
2019-05-02T17:12:11.909Z,13.60
2019-05-02T17:14:37.872Z,13.60
2019-05-02T17:17:04.491Z,13.70
2019-05-02T17:19:34.771Z,13.60
2019-05-02T17:21:59.895Z,13.60
2019-05-02T17:24:26.877Z,13.60
2019-05-02T17:26:53.722Z,13.60
2019-05-02T17:29:21.354Z,13.80
2019-05-02T17:31:50.054Z,14.00
2019-05-02T17:34:23.021Z,13.90
2019-05-02T17:36:47.007Z,13.70
2019-05-02T17:39:13.699Z,13.60
2019-05-02T17:41:44.012Z,13.40
2019-05-02T17:44:12.931Z,13.40
2019-05-02T17:46:39.269Z,13.30
2019-05-02T17:49:06.404Z,13.10
2019-05-02T17:52:04.467Z,13.00
2019-05-02T17:54:26.032Z,13.10
2019-05-02T17:56:52.255Z,13.00
2019-05-02T17:59:19.421Z,13.00
2019-05-02T18:01:46.151Z,12.80
2019-05-02T18:04:16.371Z,12.70
2019-05-02T18:06:41.761Z,12.60
2019-05-02T18:09:08.641Z,12.60
2019-05-02T18:11:37.628Z,12.70
2019-05-02T18:14:10.139Z,12.80
2019-05-02T18:16:32.655Z,12.70
2019-05-02T18:18:59.305Z,12.70
2019-05-02T18:21:28.704Z,12.70
2019-05-02T18:23:57.182Z,12.70
2019-05-02T18:26:23.324Z,12.80
2019-05-02T18:28:52.524Z,12.70
2019-05-02T18:31:21.430Z,12.50
2019-05-02T18:33:48.275Z,12.40
2019-05-02T18:36:17.496Z,12.30
2019-05-02T18:38:43.437Z,12.20
2019-05-02T18:41:11.893Z,12.10
2019-05-02T18:43:41.486Z,12.20
2019-05-02T18:46:07.746Z,12.20
2019-05-02T18:48:36.593Z,12.20
2019-05-02T18:51:03.093Z,12.20
2019-05-02T18:53:29.778Z,12.30
2019-05-02T18:56:01.011Z,12.40
2019-05-02T18:58:25.143Z,12.50
2019-05-02T19:00:52.188Z,12.60
2019-05-02T19:03:19.051Z,12.60
2019-05-02T19:05:46.686Z,12.70
2019-05-02T19:08:13.732Z,12.80
2019-05-02T19:10:44.707Z,12.80
2019-05-02T19:13:09.315Z,12.80
2019-05-02T19:15:39.605Z,12.90
2019-05-02T19:18:05.204Z,12.90
2019-05-02T19:21:07.095Z,12.90
2019-05-02T19:23:34.791Z,12.80
2019-05-02T19:26:09.670Z,12.80
2019-05-02T19:28:42.913Z,12.80
2019-05-02T19:31:09.660Z,12.80
2019-05-02T19:33:37.382Z,12.80
2019-05-02T19:36:05.049Z,12.80
2019-05-02T19:38:32.338Z,12.80
2019-05-02T19:41:05.511Z,12.80
2019-05-02T19:43:28.987Z,12.80
2019-05-02T19:45:55.596Z,12.80
2019-05-02T19:48:22.668Z,12.80
2019-05-02T19:50:51.693Z,12.80
2019-05-02T19:53:19.639Z,12.90
2019-05-02T19:55:46.454Z,12.80
2019-05-02T19:58:13.349Z,12.80
2019-05-02T20:00:42.317Z,12.80
2019-05-02T20:03:08.587Z,12.90
2019-05-02T20:05:35.238Z,12.90
2019-05-02T20:08:02.564Z,12.80
2019-05-02T20:10:31.907Z,12.80
2019-05-02T20:12:58.211Z,12.80
2019-05-02T20:15:28.946Z,12.80
2019-05-02T20:18:00.573Z,12.90
2019-05-02T20:21:05.553Z,12.90
2019-05-02T20:23:35.606Z,12.90
2019-05-02T20:26:00.665Z,13.00
2019-05-02T20:28:27.517Z,12.90
2019-05-02T20:30:54.352Z,12.90
2019-05-02T20:33:22.228Z,12.80
2019-05-02T20:35:49.309Z,12.70
2019-05-02T20:38:16.216Z,12.50
2019-05-02T20:40:43.069Z,12.30
2019-05-02T20:43:11.996Z,12.10
2019-05-02T20:45:38.412Z,11.90
2019-05-02T20:48:05.209Z,11.80
2019-05-02T20:50:31.986Z,11.70
2019-05-02T20:52:58.662Z,11.70
2019-05-02T20:55:25.367Z,11.60
2019-05-02T20:57:52.739Z,11.30
2019-05-02T21:00:23.596Z,11.00
2019-05-02T21:02:51.915Z,10.90
2019-05-02T21:05:20.614Z,10.80
2019-05-02T21:08:01.880Z,10.80
2019-05-02T21:10:35.580Z,10.80
2019-05-02T21:13:02.490Z,10.70
2019-05-02T21:15:32.240Z,10.70
2019-05-02T21:17:58.790Z,10.80
2019-05-02T21:20:25.660Z,10.80
2019-05-02T21:22:52.973Z,10.80
2019-05-02T21:25:23.210Z,10.80
2019-05-02T21:27:52.230Z,10.80
2019-05-02T21:30:24.145Z,10.80
2019-05-02T21:32:52.043Z,10.80
2019-05-02T21:35:18.918Z,10.90
2019-05-02T21:37:45.600Z,10.90
2019-05-02T21:40:12.572Z,10.90
2019-05-02T21:42:39.279Z,11.00
2019-05-02T21:45:06.436Z,10.90
2019-05-02T21:47:33.519Z,11.00
2019-05-02T21:50:06.417Z,10.80
2019-05-02T21:52:46.560Z,10.70
2019-05-02T21:55:21.748Z,10.60
2019-05-02T21:57:48.559Z,10.60
2019-05-02T22:00:39.177Z,10.60
2019-05-02T22:03:06.996Z,10.50
2019-05-02T22:05:33.749Z,10.60
2019-05-02T22:08:00.492Z,10.60
2019-05-02T22:10:27.532Z,10.60
2019-05-02T22:12:54.154Z,10.50
2019-05-02T22:15:21.918Z,10.40
2019-05-02T22:17:48.736Z,10.40
2019-05-02T22:20:15.668Z,10.30
2019-05-02T22:22:42.705Z,10.30
2019-05-02T22:25:09.335Z,10.30
2019-05-02T22:27:36.033Z,10.30
2019-05-02T22:30:04.020Z,10.20
2019-05-02T22:32:32.133Z,10.30
2019-05-02T22:34:59.148Z,10.20
2019-05-02T22:37:25.977Z,10.20
2019-05-02T22:39:57.147Z,10.30
2019-05-02T22:42:23.985Z,10.30
2019-05-02T22:44:50.855Z,10.30
2019-05-02T22:47:17.608Z,10.20
2019-05-02T22:49:44.283Z,10.20
2019-05-02T22:52:12.199Z,10.20
2019-05-02T22:54:41.570Z,10.20
2019-05-02T22:57:08.548Z,10.30
2019-05-02T22:59:35.244Z,10.30
2019-05-02T23:02:02.255Z,10.20
2019-05-02T23:04:29.392Z,10.10
2019-05-02T23:06:56.470Z,10.00
2019-05-02T23:09:23.129Z,10.00
2019-05-02T23:11:51.702Z,10.00
2019-05-02T23:14:18.876Z,10.00
2019-05-02T23:16:45.734Z,10.00
2019-05-02T23:19:12.553Z,10.00
2019-05-02T23:21:39.635Z,9.90
2019-05-02T23:24:14.472Z,9.90
2019-05-02T23:26:53.495Z,9.80
2019-05-02T23:29:20.105Z,9.90
2019-05-02T23:31:46.712Z,9.90
2019-05-02T23:34:13.324Z,9.80
2019-05-02T23:36:41.624Z,9.80
2019-05-02T23:39:09.459Z,9.80
2019-05-02T23:41:36.677Z,9.80
2019-05-02T23:44:03.419Z,9.70
2019-05-02T23:46:30.097Z,9.70
2019-05-02T23:48:56.945Z,9.70
2019-05-02T23:51:23.740Z,9.70
2019-05-02T23:53:50.397Z,9.60
2019-05-02T23:56:17.051Z,9.60
2019-05-02T23:58:43.799Z,9.60
